sensor_id;sensor_type;location;lat;lon;timestamp;P1;durP1;ratioP1;P2;durP2;ratioP2
76640;SDS011;65538;50.798;6.064;2023-03-14T00:02:08;9.38;;;2.38;;
76640;SDS011;65538;50.798;6.064;2023-03-14T00:04:33;7.17;;;1.63;;
76640;SDS011;65538;50.798;6.064;2023-03-14T00:06:58;10.63;;;1.70;;
76640;SDS011;65538;50.798;6.064;2023-03-14T00:09:24;7.90;;;1.37;;
76640;SDS011;65538;50.798;6.064;2023-03-14T00:11:49;6.37;;;1.50;;
76640;SDS011;65538;50.798;6.064;2023-03-14T00:14:14;7.93;;;1.60;;
76640;SDS011;65538;50.798;6.064;2023-03-14T00:16:41;4.68;;;0.90;;
76640;SDS011;65538;50.798;6.064;2023-03-14T00:19:06;4.07;;;1.17;;
76640;SDS011;65538;50.798;6.064;2023-03-14T00:21:32;6.43;;;1.10;;
76640;SDS011;65538;50.798;6.064;2023-03-14T00:23:57;5.50;;;0.80;;
76640;SDS011;65538;50.798;6.064;2023-03-14T00:26:22;8.20;;;1.40;;
76640;SDS011;65538;50.798;6.064;2023-03-14T00:28:50;8.53;;;1.93;;
76640;SDS011;65538;50.798;6.064;2023-03-14T00:31:16;5.13;;;1.52;;
76640;SDS011;65538;50.798;6.064;2023-03-14T00:33:42;4.13;;;1.03;;
76640;SDS011;65538;50.798;6.064;2023-03-14T00:36:08;11.70;;;1.40;;
76640;SDS011;65538;50.798;6.064;2023-03-14T00:38:34;7.70;;;0.93;;
76640;SDS011;65538;50.798;6.064;2023-03-14T00:41:02;2.83;;;0.95;;
76640;SDS011;65538;50.798;6.064;2023-03-14T00:43:28;4.38;;;1.25;;
76640;SDS011;65538;50.798;6.064;2023-03-14T00:45:53;9.07;;;1.47;;
76640;SDS011;65538;50.798;6.064;2023-03-14T00:48:19;10.50;;;1.57;;
76640;SDS011;65538;50.798;6.064;2023-03-14T00:50:44;10.45;;;1.70;;
76640;SDS011;65538;50.798;6.064;2023-03-14T00:53:10;5.72;;;1.00;;
76640;SDS011;65538;50.798;6.064;2023-03-14T00:55:38;3.23;;;0.77;;
76640;SDS011;65538;50.798;6.064;2023-03-14T00:58:04;6.28;;;1.20;;
76640;SDS011;65538;50.798;6.064;2023-03-14T01:00:29;10.02;;;1.35;;
76640;SDS011;65538;50.798;6.064;2023-03-14T01:02:54;7.63;;;1.43;;
76640;SDS011;65538;50.798;6.064;2023-03-14T01:05:21;5.10;;;0.73;;
76640;SDS011;65538;50.798;6.064;2023-03-14T01:07:46;5.53;;;1.10;;
76640;SDS011;65538;50.798;6.064;2023-03-14T01:10:12;2.13;;;0.87;;
76640;SDS011;65538;50.798;6.064;2023-03-14T01:12:37;3.33;;;0.70;;
76640;SDS011;65538;50.798;6.064;2023-03-14T01:15:02;5.40;;;0.67;;
76640;SDS011;65538;50.798;6.064;2023-03-14T01:17:27;5.25;;;0.82;;
76640;SDS011;65538;50.798;6.064;2023-03-14T01:19:53;6.47;;;1.20;;
76640;SDS011;65538;50.798;6.064;2023-03-14T01:22:18;3.30;;;1.03;;
76640;SDS011;65538;50.798;6.064;2023-03-14T01:24:43;3.57;;;1.10;;
76640;SDS011;65538;50.798;6.064;2023-03-14T01:27:08;7.57;;;1.37;;
76640;SDS011;65538;50.798;6.064;2023-03-14T01:29:33;4.00;;;0.93;;
76640;SDS011;65538;50.798;6.064;2023-03-14T01:31:59;4.57;;;1.30;;
76640;SDS011;65538;50.798;6.064;2023-03-14T01:34:24;4.17;;;1.13;;
76640;SDS011;65538;50.798;6.064;2023-03-14T01:36:49;8.20;;;0.90;;
76640;SDS011;65538;50.798;6.064;2023-03-14T01:39:14;8.30;;;0.70;;
76640;SDS011;65538;50.798;6.064;2023-03-14T01:41:40;6.28;;;0.80;;
76640;SDS011;65538;50.798;6.064;2023-03-14T01:44:08;7.75;;;1.75;;
76640;SDS011;65538;50.798;6.064;2023-03-14T01:46:45;6.55;;;1.30;;
76640;SDS011;65538;50.798;6.064;2023-03-14T01:49:21;6.97;;;1.20;;
76640;SDS011;65538;50.798;6.064;2023-03-14T01:51:52;4.32;;;1.15;;
76640;SDS011;65538;50.798;6.064;2023-03-14T01:56:55;8.68;;;1.80;;
76640;SDS011;65538;50.798;6.064;2023-03-14T01:59:22;4.90;;;1.50;;
76640;SDS011;65538;50.798;6.064;2023-03-14T02:01:47;1.83;;;0.80;;
76640;SDS011;65538;50.798;6.064;2023-03-14T02:04:14;3.92;;;1.30;;
76640;SDS011;65538;50.798;6.064;2023-03-14T02:06:46;10.75;;;2.35;;
76640;SDS011;65538;50.798;6.064;2023-03-14T02:09:12;7.53;;;1.52;;
76640;SDS011;65538;50.798;6.064;2023-03-14T02:11:37;6.27;;;1.47;;
76640;SDS011;65538;50.798;6.064;2023-03-14T02:14:03;11.88;;;2.03;;
76640;SDS011;65538;50.798;6.064;2023-03-14T02:16:28;7.57;;;1.70;;
76640;SDS011;65538;50.798;6.064;2023-03-14T02:18:53;12.13;;;2.10;;
76640;SDS011;65538;50.798;6.064;2023-03-14T02:26:29;7.53;;;1.30;;
76640;SDS011;65538;50.798;6.064;2023-03-14T02:28:56;5.68;;;1.30;;
76640;SDS011;65538;50.798;6.064;2023-03-14T02:31:22;10.63;;;1.70;;
76640;SDS011;65538;50.798;6.064;2023-03-14T02:33:49;10.75;;;2.42;;
76640;SDS011;65538;50.798;6.064;2023-03-14T02:36:15;10.00;;;3.13;;
76640;SDS011;65538;50.798;6.064;2023-03-14T02:38:46;16.58;;;1.55;;
76640;SDS011;65538;50.798;6.064;2023-03-14T02:41:12;7.93;;;1.45;;
76640;SDS011;65538;50.798;6.064;2023-03-14T02:43:37;10.73;;;2.00;;
76640;SDS011;65538;50.798;6.064;2023-03-14T02:46:03;8.05;;;1.90;;
76640;SDS011;65538;50.798;6.064;2023-03-14T02:48:30;11.13;;;2.08;;
76640;SDS011;65538;50.798;6.064;2023-03-14T02:50:57;17.58;;;3.50;;
76640;SDS011;65538;50.798;6.064;2023-03-14T02:53:41;12.10;;;2.28;;
76640;SDS011;65538;50.798;6.064;2023-03-14T02:56:07;8.80;;;1.30;;
76640;SDS011;65538;50.798;6.064;2023-03-14T02:58:33;12.10;;;2.58;;
76640;SDS011;65538;50.798;6.064;2023-03-14T03:00:58;8.30;;;2.27;;
76640;SDS011;65538;50.798;6.064;2023-03-14T03:03:23;7.93;;;1.73;;
76640;SDS011;65538;50.798;6.064;2023-03-14T03:05:49;9.90;;;1.87;;
76640;SDS011;65538;50.798;6.064;2023-03-14T03:08:15;5.88;;;1.90;;
76640;SDS011;65538;50.798;6.064;2023-03-14T03:10:41;9.02;;;1.42;;
76640;SDS011;65538;50.798;6.064;2023-03-14T03:13:06;2.93;;;1.03;;
76640;SDS011;65538;50.798;6.064;2023-03-14T03:15:31;5.00;;;1.30;;
76640;SDS011;65538;50.798;6.064;2023-03-14T03:17:56;7.33;;;1.77;;
76640;SDS011;65538;50.798;6.064;2023-03-14T03:20:22;9.00;;;1.73;;
76640;SDS011;65538;50.798;6.064;2023-03-14T03:22:47;5.97;;;1.53;;
76640;SDS011;65538;50.798;6.064;2023-03-14T03:25:13;4.28;;;1.27;;
76640;SDS011;65538;50.798;6.064;2023-03-14T03:27:38;6.03;;;1.47;;
76640;SDS011;65538;50.798;6.064;2023-03-14T03:30:04;5.13;;;0.90;;
76640;SDS011;65538;50.798;6.064;2023-03-14T03:32:30;4.88;;;1.20;;
76640;SDS011;65538;50.798;6.064;2023-03-14T03:34:55;3.77;;;1.37;;
76640;SDS011;65538;50.798;6.064;2023-03-14T03:37:20;4.97;;;1.17;;
76640;SDS011;65538;50.798;6.064;2023-03-14T03:39:46;4.57;;;0.60;;
76640;SDS011;65538;50.798;6.064;2023-03-14T03:42:11;4.73;;;1.10;;
76640;SDS011;65538;50.798;6.064;2023-03-14T03:44:36;2.20;;;0.70;;
76640;SDS011;65538;50.798;6.064;2023-03-14T03:47:02;2.30;;;0.50;;
76640;SDS011;65538;50.798;6.064;2023-03-14T03:49:31;6.72;;;1.08;;
76640;SDS011;65538;50.798;6.064;2023-03-14T03:51:56;3.53;;;0.90;;
76640;SDS011;65538;50.798;6.064;2023-03-14T03:54:22;3.50;;;1.17;;
76640;SDS011;65538;50.798;6.064;2023-03-14T03:56:47;4.23;;;1.00;;
76640;SDS011;65538;50.798;6.064;2023-03-14T03:59:12;1.87;;;0.87;;
76640;SDS011;65538;50.798;6.064;2023-03-14T04:01:37;3.27;;;0.67;;
76640;SDS011;65538;50.798;6.064;2023-03-14T04:04:02;2.43;;;0.77;;
76640;SDS011;65538;50.798;6.064;2023-03-14T04:06:28;1.80;;;0.87;;
76640;SDS011;65538;50.798;6.064;2023-03-14T04:08:53;3.87;;;0.80;;
76640;SDS011;65538;50.798;6.064;2023-03-14T04:11:18;1.77;;;0.65;;
76640;SDS011;65538;50.798;6.064;2023-03-14T04:13:44;2.90;;;0.70;;
76640;SDS011;65538;50.798;6.064;2023-03-14T04:16:16;2.97;;;0.70;;
76640;SDS011;65538;50.798;6.064;2023-03-14T04:18:42;1.75;;;0.43;;
76640;SDS011;65538;50.798;6.064;2023-03-14T04:21:07;1.53;;;0.60;;
76640;SDS011;65538;50.798;6.064;2023-03-14T04:23:32;0.70;;;0.30;;
76640;SDS011;65538;50.798;6.064;2023-03-14T04:25:58;3.00;;;0.52;;
76640;SDS011;65538;50.798;6.064;2023-03-14T04:28:24;0.63;;;0.32;;
76640;SDS011;65538;50.798;6.064;2023-03-14T04:30:49;1.67;;;0.40;;
76640;SDS011;65538;50.798;6.064;2023-03-14T04:33:14;1.20;;;0.30;;
76640;SDS011;65538;50.798;6.064;2023-03-14T04:35:42;1.48;;;0.50;;
76640;SDS011;65538;50.798;6.064;2023-03-14T04:38:07;2.22;;;0.30;;
76640;SDS011;65538;50.798;6.064;2023-03-14T04:40:32;1.50;;;0.50;;
76640;SDS011;65538;50.798;6.064;2023-03-14T04:42:57;2.33;;;0.60;;
76640;SDS011;65538;50.798;6.064;2023-03-14T04:45:23;1.63;;;0.20;;
76640;SDS011;65538;50.798;6.064;2023-03-14T04:47:48;0.63;;;0.30;;
76640;SDS011;65538;50.798;6.064;2023-03-14T04:50:13;0.97;;;0.30;;
76640;SDS011;65538;50.798;6.064;2023-03-14T04:52:38;0.82;;;0.22;;
76640;SDS011;65538;50.798;6.064;2023-03-14T04:55:04;0.90;;;0.30;;
76640;SDS011;65538;50.798;6.064;2023-03-14T04:57:29;0.50;;;0.30;;
76640;SDS011;65538;50.798;6.064;2023-03-14T04:59:54;0.90;;;0.30;;
76640;SDS011;65538;50.798;6.064;2023-03-14T05:02:19;0.90;;;0.40;;
76640;SDS011;65538;50.798;6.064;2023-03-14T05:04:45;0.33;;;0.20;;
76640;SDS011;65538;50.798;6.064;2023-03-14T05:07:10;2.20;;;0.80;;
76640;SDS011;65538;50.798;6.064;2023-03-14T05:09:35;2.20;;;0.30;;
76640;SDS011;65538;50.798;6.064;2023-03-14T05:12:00;1.03;;;0.30;;
76640;SDS011;65538;50.798;6.064;2023-03-14T05:14:26;1.03;;;0.30;;
76640;SDS011;65538;50.798;6.064;2023-03-14T05:16:51;0.83;;;0.30;;
76640;SDS011;65538;50.798;6.064;2023-03-14T05:19:16;0.43;;;0.20;;
76640;SDS011;65538;50.798;6.064;2023-03-14T05:21:41;0.57;;;0.30;;
76640;SDS011;65538;50.798;6.064;2023-03-14T05:24:07;0.43;;;0.30;;
76640;SDS011;65538;50.798;6.064;2023-03-14T05:26:32;0.23;;;0.20;;
76640;SDS011;65538;50.798;6.064;2023-03-14T05:28:57;1.27;;;0.50;;
76640;SDS011;65538;50.798;6.064;2023-03-14T05:31:22;0.70;;;0.33;;
76640;SDS011;65538;50.798;6.064;2023-03-14T05:33:47;0.13;;;0.13;;
76640;SDS011;65538;50.798;6.064;2023-03-14T05:36:13;1.73;;;0.50;;
76640;SDS011;65538;50.798;6.064;2023-03-14T05:38:38;0.90;;;0.37;;
76640;SDS011;65538;50.798;6.064;2023-03-14T05:41:03;0.83;;;0.30;;
76640;SDS011;65538;50.798;6.064;2023-03-14T05:43:28;0.93;;;0.40;;
76640;SDS011;65538;50.798;6.064;2023-03-14T05:45:54;0.70;;;0.40;;
76640;SDS011;65538;50.798;6.064;2023-03-14T05:48:19;0.43;;;0.27;;
76640;SDS011;65538;50.798;6.064;2023-03-14T05:50:44;0.87;;;0.20;;
76640;SDS011;65538;50.798;6.064;2023-03-14T05:53:09;0.83;;;0.50;;
76640;SDS011;65538;50.798;6.064;2023-03-14T05:55:35;0.90;;;0.50;;
76640;SDS011;65538;50.798;6.064;2023-03-14T05:58:00;0.87;;;0.40;;
76640;SDS011;65538;50.798;6.064;2023-03-14T06:00:25;1.13;;;0.40;;
76640;SDS011;65538;50.798;6.064;2023-03-14T06:02:50;2.50;;;0.60;;
76640;SDS011;65538;50.798;6.064;2023-03-14T06:05:16;1.33;;;0.70;;
76640;SDS011;65538;50.798;6.064;2023-03-14T06:07:41;2.28;;;0.70;;
76640;SDS011;65538;50.798;6.064;2023-03-14T06:10:07;0.77;;;0.40;;
76640;SDS011;65538;50.798;6.064;2023-03-14T06:12:32;1.23;;;0.52;;
76640;SDS011;65538;50.798;6.064;2023-03-14T06:14:57;1.50;;;0.70;;
76640;SDS011;65538;50.798;6.064;2023-03-14T06:17:23;2.40;;;0.93;;
76640;SDS011;65538;50.798;6.064;2023-03-14T06:19:48;1.40;;;0.60;;
76640;SDS011;65538;50.798;6.064;2023-03-14T06:22:13;1.73;;;0.60;;
76640;SDS011;65538;50.798;6.064;2023-03-14T06:24:38;1.67;;;0.63;;
76640;SDS011;65538;50.798;6.064;2023-03-14T06:27:05;1.20;;;0.50;;
76640;SDS011;65538;50.798;6.064;2023-03-14T06:29:30;1.33;;;0.50;;
76640;SDS011;65538;50.798;6.064;2023-03-14T06:31:55;1.33;;;0.60;;
76640;SDS011;65538;50.798;6.064;2023-03-14T06:34:21;1.37;;;0.40;;
76640;SDS011;65538;50.798;6.064;2023-03-14T06:36:46;2.50;;;0.60;;
76640;SDS011;65538;50.798;6.064;2023-03-14T06:39:11;1.30;;;0.57;;
76640;SDS011;65538;50.798;6.064;2023-03-14T06:41:36;1.83;;;0.73;;
76640;SDS011;65538;50.798;6.064;2023-03-14T06:44:02;2.90;;;0.60;;
76640;SDS011;65538;50.798;6.064;2023-03-14T06:46:27;1.57;;;0.57;;
76640;SDS011;65538;50.798;6.064;2023-03-14T06:48:52;1.20;;;0.40;;
76640;SDS011;65538;50.798;6.064;2023-03-14T06:51:18;1.42;;;0.50;;
76640;SDS011;65538;50.798;6.064;2023-03-14T06:53:43;1.42;;;0.60;;
76640;SDS011;65538;50.798;6.064;2023-03-14T06:56:09;2.13;;;0.70;;
76640;SDS011;65538;50.798;6.064;2023-03-14T06:58:34;7.72;;;0.80;;
76640;SDS011;65538;50.798;6.064;2023-03-14T07:00:59;1.87;;;0.90;;
76640;SDS011;65538;50.798;6.064;2023-03-14T07:03:25;1.30;;;0.65;;
76640;SDS011;65538;50.798;6.064;2023-03-14T07:05:50;1.80;;;0.57;;
76640;SDS011;65538;50.798;6.064;2023-03-14T07:08:15;1.33;;;0.60;;
76640;SDS011;65538;50.798;6.064;2023-03-14T07:10:41;1.80;;;0.77;;
76640;SDS011;65538;50.798;6.064;2023-03-14T07:13:06;1.17;;;0.60;;
76640;SDS011;65538;50.798;6.064;2023-03-14T07:15:31;1.90;;;0.70;;
76640;SDS011;65538;50.798;6.064;2023-03-14T07:17:56;2.20;;;0.47;;
76640;SDS011;65538;50.798;6.064;2023-03-14T07:20:22;1.00;;;0.40;;
76640;SDS011;65538;50.798;6.064;2023-03-14T07:22:48;2.13;;;0.70;;
76640;SDS011;65538;50.798;6.064;2023-03-14T07:25:14;2.47;;;0.70;;
76640;SDS011;65538;50.798;6.064;2023-03-14T07:27:39;1.80;;;0.70;;
76640;SDS011;65538;50.798;6.064;2023-03-14T07:30:05;1.02;;;0.60;;
76640;SDS011;65538;50.798;6.064;2023-03-14T07:32:30;1.90;;;0.70;;
76640;SDS011;65538;50.798;6.064;2023-03-14T07:34:56;1.13;;;0.60;;
76640;SDS011;65538;50.798;6.064;2023-03-14T07:37:21;1.67;;;0.60;;
76640;SDS011;65538;50.798;6.064;2023-03-14T07:39:46;1.23;;;0.50;;
76640;SDS011;65538;50.798;6.064;2023-03-14T07:42:11;2.23;;;0.73;;
76640;SDS011;65538;50.798;6.064;2023-03-14T07:44:37;1.52;;;0.68;;
76640;SDS011;65538;50.798;6.064;2023-03-14T07:47:02;1.10;;;0.60;;
76640;SDS011;65538;50.798;6.064;2023-03-14T07:49:29;1.30;;;0.60;;
76640;SDS011;65538;50.798;6.064;2023-03-14T07:51:54;2.80;;;1.03;;
76640;SDS011;65538;50.798;6.064;2023-03-14T07:54:19;2.43;;;0.83;;
76640;SDS011;65538;50.798;6.064;2023-03-14T07:56:44;1.93;;;0.80;;
76640;SDS011;65538;50.798;6.064;2023-03-14T07:59:10;1.60;;;0.73;;
76640;SDS011;65538;50.798;6.064;2023-03-14T08:01:36;4.05;;;1.27;;
76640;SDS011;65538;50.798;6.064;2023-03-14T08:04:01;2.20;;;1.17;;
76640;SDS011;65538;50.798;6.064;2023-03-14T08:06:26;5.47;;;1.30;;
76640;SDS011;65538;50.798;6.064;2023-03-14T08:08:51;2.40;;;1.00;;
76640;SDS011;65538;50.798;6.064;2023-03-14T08:11:16;3.17;;;1.27;;
76640;SDS011;65538;50.798;6.064;2023-03-14T08:13:42;3.73;;;1.10;;
76640;SDS011;65538;50.798;6.064;2023-03-14T08:16:07;2.40;;;0.93;;
76640;SDS011;65538;50.798;6.064;2023-03-14T08:18:33;3.58;;;1.00;;
76640;SDS011;65538;50.798;6.064;2023-03-14T08:20:58;2.00;;;0.90;;
76640;SDS011;65538;50.798;6.064;2023-03-14T08:23:23;3.30;;;0.90;;
76640;SDS011;65538;50.798;6.064;2023-03-14T08:25:49;2.70;;;1.35;;
76640;SDS011;65538;50.798;6.064;2023-03-14T08:28:15;3.25;;;1.02;;
76640;SDS011;65538;50.798;6.064;2023-03-14T08:30:40;2.60;;;1.10;;
76640;SDS011;65538;50.798;6.064;2023-03-14T08:33:05;1.97;;;0.73;;
76640;SDS011;65538;50.798;6.064;2023-03-14T08:35:31;2.03;;;0.80;;
76640;SDS011;65538;50.798;6.064;2023-03-14T08:37:56;2.10;;;0.80;;
76640;SDS011;65538;50.798;6.064;2023-03-14T08:40:21;2.53;;;0.93;;
76640;SDS011;65538;50.798;6.064;2023-03-14T08:42:47;2.50;;;0.73;;
76640;SDS011;65538;50.798;6.064;2023-03-14T08:45:13;3.63;;;0.83;;
76640;SDS011;65538;50.798;6.064;2023-03-14T08:47:38;4.65;;;1.27;;
76640;SDS011;65538;50.798;6.064;2023-03-14T08:50:04;3.77;;;1.77;;
76640;SDS011;65538;50.798;6.064;2023-03-14T08:52:30;4.60;;;1.80;;
76640;SDS011;65538;50.798;6.064;2023-03-14T08:54:56;2.88;;;1.63;;
76640;SDS011;65538;50.798;6.064;2023-03-14T08:57:21;2.67;;;1.70;;
76640;SDS011;65538;50.798;6.064;2023-03-14T08:59:47;3.15;;;2.00;;
76640;SDS011;65538;50.798;6.064;2023-03-14T09:02:12;2.35;;;1.40;;
76640;SDS011;65538;50.798;6.064;2023-03-14T09:04:37;2.33;;;1.30;;
76640;SDS011;65538;50.798;6.064;2023-03-14T09:07:02;2.70;;;0.93;;
76640;SDS011;65538;50.798;6.064;2023-03-14T09:09:28;2.00;;;1.00;;
76640;SDS011;65538;50.798;6.064;2023-03-14T09:11:53;3.07;;;0.90;;
76640;SDS011;65538;50.798;6.064;2023-03-14T09:14:18;2.30;;;1.00;;
76640;SDS011;65538;50.798;6.064;2023-03-14T09:16:44;2.17;;;0.93;;
76640;SDS011;65538;50.798;6.064;2023-03-14T09:19:09;2.30;;;1.30;;
76640;SDS011;65538;50.798;6.064;2023-03-14T09:21:34;3.50;;;1.67;;
76640;SDS011;65538;50.798;6.064;2023-03-14T09:23:59;3.67;;;2.00;;
76640;SDS011;65538;50.798;6.064;2023-03-14T09:26:24;4.13;;;2.47;;
76640;SDS011;65538;50.798;6.064;2023-03-14T09:28:50;3.60;;;2.10;;
76640;SDS011;65538;50.798;6.064;2023-03-14T09:31:15;5.70;;;3.17;;
76640;SDS011;65538;50.798;6.064;2023-03-14T09:33:40;5.07;;;3.53;;
76640;SDS011;65538;50.798;6.064;2023-03-14T09:36:06;6.37;;;3.73;;
76640;SDS011;65538;50.798;6.064;2023-03-14T09:38:32;9.02;;;4.25;;
76640;SDS011;65538;50.798;6.064;2023-03-14T09:40:58;6.65;;;5.30;;
76640;SDS011;65538;50.798;6.064;2023-03-14T09:43:24;11.50;;;6.10;;
76640;SDS011;65538;50.798;6.064;2023-03-14T09:45:49;8.00;;;5.03;;
76640;SDS011;65538;50.798;6.064;2023-03-14T09:48:26;6.00;;;4.63;;
76640;SDS011;65538;50.798;6.064;2023-03-14T09:50:53;7.78;;;5.35;;
76640;SDS011;65538;50.798;6.064;2023-03-14T09:53:20;6.18;;;3.80;;
76640;SDS011;65538;50.798;6.064;2023-03-14T09:55:47;5.35;;;3.15;;
76640;SDS011;65538;50.798;6.064;2023-03-14T09:58:14;9.35;;;4.35;;
76640;SDS011;65538;50.798;6.064;2023-03-14T10:00:40;5.45;;;3.60;;
76640;SDS011;65538;50.798;6.064;2023-03-14T10:05:37;6.90;;;5.03;;
76640;SDS011;65538;50.798;6.064;2023-03-14T10:08:03;6.10;;;3.60;;
76640;SDS011;65538;50.798;6.064;2023-03-14T10:10:29;7.97;;;4.55;;
76640;SDS011;65538;50.798;6.064;2023-03-14T10:12:59;7.53;;;4.05;;
76640;SDS011;65538;50.798;6.064;2023-03-14T10:15:31;7.60;;;4.20;;
76640;SDS011;65538;50.798;6.064;2023-03-14T10:17:58;6.90;;;4.03;;
76640;SDS011;65538;50.798;6.064;2023-03-14T10:20:34;8.63;;;4.90;;
76640;SDS011;65538;50.798;6.064;2023-03-14T10:25:28;7.93;;;5.57;;
76640;SDS011;65538;50.798;6.064;2023-03-14T10:27:54;8.43;;;5.05;;
76640;SDS011;65538;50.798;6.064;2023-03-14T10:33:31;6.82;;;5.22;;
76640;SDS011;65538;50.798;6.064;2023-03-14T10:36:39;7.88;;;4.72;;
76640;SDS011;65538;50.798;6.064;2023-03-14T10:38:40;6.35;;;3.45;;
76640;SDS011;65538;50.798;6.064;2023-03-14T10:41:24;6.90;;;3.60;;
76640;SDS011;65538;50.798;6.064;2023-03-14T10:43:54;5.13;;;3.30;;
76640;SDS011;65538;50.798;6.064;2023-03-14T10:46:21;7.22;;;4.15;;
76640;SDS011;65538;50.798;6.064;2023-03-14T10:48:48;7.38;;;4.93;;
76640;SDS011;65538;50.798;6.064;2023-03-14T10:56:11;3.10;;;1.07;;
76640;SDS011;65538;50.798;6.064;2023-03-14T10:58:41;1.77;;;0.90;;
76640;SDS011;65538;50.798;6.064;2023-03-14T11:06:55;4.47;;;1.92;;
76640;SDS011;65538;50.798;6.064;2023-03-14T11:09:24;4.25;;;1.92;;
76640;SDS011;65538;50.798;6.064;2023-03-14T11:11:54;3.83;;;2.33;;
76640;SDS011;65538;50.798;6.064;2023-03-14T11:16:52;4.13;;;1.90;;
76640;SDS011;65538;50.798;6.064;2023-03-14T11:22:23;6.65;;;2.22;;
76640;SDS011;65538;50.798;6.064;2023-03-14T11:27:44;3.83;;;1.85;;
76640;SDS011;65538;50.798;6.064;2023-03-14T11:30:21;5.43;;;2.35;;
76640;SDS011;65538;50.798;6.064;2023-03-14T11:33:07;3.58;;;1.90;;
76640;SDS011;65538;50.798;6.064;2023-03-14T11:35:34;3.70;;;1.55;;
76640;SDS011;65538;50.798;6.064;2023-03-14T11:38:03;3.35;;;1.60;;
76640;SDS011;65538;50.798;6.064;2023-03-14T11:45:39;5.53;;;1.98;;
76640;SDS011;65538;50.798;6.064;2023-03-14T11:50:40;4.78;;;1.90;;
76640;SDS011;65538;50.798;6.064;2023-03-14T11:53:17;3.80;;;1.98;;
76640;SDS011;65538;50.798;6.064;2023-03-14T11:55:44;5.15;;;1.90;;
76640;SDS011;65538;50.798;6.064;2023-03-14T11:58:17;5.20;;;1.70;;
76640;SDS011;65538;50.798;6.064;2023-03-14T12:00:44;3.03;;;1.40;;
76640;SDS011;65538;50.798;6.064;2023-03-14T12:03:19;3.92;;;1.83;;
76640;SDS011;65538;50.798;6.064;2023-03-14T12:08:42;3.70;;;1.50;;
76640;SDS011;65538;50.798;6.064;2023-03-14T12:11:10;3.05;;;1.10;;
76640;SDS011;65538;50.798;6.064;2023-03-14T12:13:36;2.40;;;1.23;;
76640;SDS011;65538;50.798;6.064;2023-03-14T12:16:06;3.47;;;1.65;;
76640;SDS011;65538;50.798;6.064;2023-03-14T12:18:33;3.38;;;1.52;;
76640;SDS011;65538;50.798;6.064;2023-03-14T12:21:02;3.17;;;1.77;;
76640;SDS011;65538;50.798;6.064;2023-03-14T12:26:06;3.45;;;1.75;;
76640;SDS011;65538;50.798;6.064;2023-03-14T12:28:32;7.72;;;2.50;;
76640;SDS011;65538;50.798;6.064;2023-03-14T12:31:04;5.13;;;2.20;;
76640;SDS011;65538;50.798;6.064;2023-03-14T12:33:43;5.03;;;2.15;;
76640;SDS011;65538;50.798;6.064;2023-03-14T12:36:12;3.70;;;2.00;;
76640;SDS011;65538;50.798;6.064;2023-03-14T12:41:37;6.90;;;1.98;;
76640;SDS011;65538;50.798;6.064;2023-03-14T12:46:47;2.58;;;1.20;;
76640;SDS011;65538;50.798;6.064;2023-03-14T12:49:12;4.03;;;2.03;;
76640;SDS011;65538;50.798;6.064;2023-03-14T12:51:38;4.03;;;1.50;;
76640;SDS011;65538;50.798;6.064;2023-03-14T12:54:11;5.57;;;2.33;;
76640;SDS011;65538;50.798;6.064;2023-03-14T12:57:01;2.97;;;1.70;;
76640;SDS011;65538;50.798;6.064;2023-03-14T13:04:42;11.38;;;2.10;;
76640;SDS011;65538;50.798;6.064;2023-03-14T13:07:12;5.00;;;1.70;;
76640;SDS011;65538;50.798;6.064;2023-03-14T13:09:52;9.38;;;1.92;;
76640;SDS011;65538;50.798;6.064;2023-03-14T13:12:18;13.32;;;2.13;;
76640;SDS011;65538;50.798;6.064;2023-03-14T13:14:48;14.40;;;2.30;;
76640;SDS011;65538;50.798;6.064;2023-03-14T13:17:14;11.80;;;2.20;;
76640;SDS011;65538;50.798;6.064;2023-03-14T13:19:39;7.80;;;1.40;;
76640;SDS011;65538;50.798;6.064;2023-03-14T13:22:06;8.77;;;1.65;;
76640;SDS011;65538;50.798;6.064;2023-03-14T13:24:37;7.20;;;1.40;;
76640;SDS011;65538;50.798;6.064;2023-03-14T13:27:03;4.70;;;1.27;;
76640;SDS011;65538;50.798;6.064;2023-03-14T13:29:29;4.17;;;1.20;;
76640;SDS011;65538;50.798;6.064;2023-03-14T13:32:13;6.80;;;1.33;;
76640;SDS011;65538;50.798;6.064;2023-03-14T13:34:41;3.08;;;1.08;;
76640;SDS011;65538;50.798;6.064;2023-03-14T13:37:14;3.10;;;1.37;;
76640;SDS011;65538;50.798;6.064;2023-03-14T13:39:40;3.17;;;1.40;;
76640;SDS011;65538;50.798;6.064;2023-03-14T13:42:05;5.35;;;1.50;;
76640;SDS011;65538;50.798;6.064;2023-03-14T13:44:38;3.20;;;1.70;;
76640;SDS011;65538;50.798;6.064;2023-03-14T13:47:04;6.60;;;2.03;;
76640;SDS011;65538;50.798;6.064;2023-03-14T13:49:30;7.20;;;2.03;;
76640;SDS011;65538;50.798;6.064;2023-03-14T13:51:57;10.35;;;1.73;;
76640;SDS011;65538;50.798;6.064;2023-03-14T13:54:22;9.43;;;1.67;;
76640;SDS011;65538;50.798;6.064;2023-03-14T13:56:58;13.43;;;2.67;;
76640;SDS011;65538;50.798;6.064;2023-03-14T13:59:24;11.57;;;2.70;;
76640;SDS011;65538;50.798;6.064;2023-03-14T14:01:50;9.02;;;2.13;;
76640;SDS011;65538;50.798;6.064;2023-03-14T14:04:16;11.57;;;1.83;;
76640;SDS011;65538;50.798;6.064;2023-03-14T14:06:44;8.70;;;1.98;;
76640;SDS011;65538;50.798;6.064;2023-03-14T14:09:19;16.83;;;3.60;;
76640;SDS011;65538;50.798;6.064;2023-03-14T14:11:46;9.60;;;2.15;;
76640;SDS011;65538;50.798;6.064;2023-03-14T14:14:32;12.40;;;2.03;;
76640;SDS011;65538;50.798;6.064;2023-03-14T14:16:58;11.82;;;2.17;;
76640;SDS011;65538;50.798;6.064;2023-03-14T14:19:25;9.00;;;1.52;;
76640;SDS011;65538;50.798;6.064;2023-03-14T14:21:52;11.10;;;2.38;;
76640;SDS011;65538;50.798;6.064;2023-03-14T14:24:18;18.10;;;3.63;;
76640;SDS011;65538;50.798;6.064;2023-03-14T14:27:09;7.88;;;2.10;;
76640;SDS011;65538;50.798;6.064;2023-03-14T14:29:32;10.70;;;2.15;;
76640;SDS011;65538;50.798;6.064;2023-03-14T14:37:20;9.45;;;2.00;;
76640;SDS011;65538;50.798;6.064;2023-03-14T14:39:46;14.80;;;3.40;;
76640;SDS011;65538;50.798;6.064;2023-03-14T14:42:13;11.73;;;3.35;;
76640;SDS011;65538;50.798;6.064;2023-03-14T14:44:39;9.68;;;2.35;;
76640;SDS011;65538;50.798;6.064;2023-03-14T14:47:04;10.00;;;2.28;;
76640;SDS011;65538;50.798;6.064;2023-03-14T14:49:31;8.25;;;1.90;;
76640;SDS011;65538;50.798;6.064;2023-03-14T14:52:00;6.90;;;2.03;;
76640;SDS011;65538;50.798;6.064;2023-03-14T14:54:43;12.77;;;2.17;;
76640;SDS011;65538;50.798;6.064;2023-03-14T14:57:16;11.82;;;2.20;;
76640;SDS011;65538;50.798;6.064;2023-03-14T14:59:42;9.30;;;2.03;;
76640;SDS011;65538;50.798;6.064;2023-03-14T15:02:23;13.82;;;2.60;;
76640;SDS011;65538;50.798;6.064;2023-03-14T15:04:50;15.15;;;3.80;;
76640;SDS011;65538;50.798;6.064;2023-03-14T15:07:15;5.83;;;1.63;;
76640;SDS011;65538;50.798;6.064;2023-03-14T15:09:41;9.17;;;2.63;;
76640;SDS011;65538;50.798;6.064;2023-03-14T15:12:07;19.52;;;3.08;;
76640;SDS011;65538;50.798;6.064;2023-03-14T15:14:32;12.00;;;2.78;;
76640;SDS011;65538;50.798;6.064;2023-03-14T15:16:57;10.33;;;2.47;;
76640;SDS011;65538;50.798;6.064;2023-03-14T15:19:23;15.37;;;2.93;;
76640;SDS011;65538;50.798;6.064;2023-03-14T15:21:49;12.48;;;2.55;;
76640;SDS011;65538;50.798;6.064;2023-03-14T15:24:14;13.70;;;3.03;;
76640;SDS011;65538;50.798;6.064;2023-03-14T15:26:39;9.60;;;1.83;;
76640;SDS011;65538;50.798;6.064;2023-03-14T15:29:05;7.50;;;1.90;;
76640;SDS011;65538;50.798;6.064;2023-03-14T15:31:33;11.98;;;2.25;;
76640;SDS011;65538;50.798;6.064;2023-03-14T15:33:58;12.55;;;2.10;;
76640;SDS011;65538;50.798;6.064;2023-03-14T15:36:24;12.50;;;2.10;;
76640;SDS011;65538;50.798;6.064;2023-03-14T15:38:51;10.65;;;2.50;;
76640;SDS011;65538;50.798;6.064;2023-03-14T15:41:17;7.47;;;2.15;;
76640;SDS011;65538;50.798;6.064;2023-03-14T15:43:42;10.77;;;2.28;;
76640;SDS011;65538;50.798;6.064;2023-03-14T15:46:11;7.10;;;1.92;;
76640;SDS011;65538;50.798;6.064;2023-03-14T15:48:37;7.72;;;2.47;;